Time;durP1;ratioP1;P1;durP2;ratioP2;P2;SDS_P1;SDS_P2;PMS_P1;PMS_P2;Temp;Humidity;BMP_temperature;BMP_pressure;BME280_temperature;BME280_humidity;BME280_pressure;Samples;Min_cycle;Max_cycle;Signal;HPM_P1;HPM_P2
2023/09/18 00:01:01;;;;;;;8.57;3.47;;;19.60;99.90;;;;;;4994498;28;20483;-67
2023/09/18 00:03:28;;;;;;;3.67;2.80;;;19.60;99.90;;;;;;4983707;28;20708;-67
2023/09/18 00:05:54;;;;;;;4.07;1.90;;;19.60;99.90;;;;;;5004173;28;21021;-67
2023/09/18 00:08:21;;;;;;;5.53;3.23;;;19.70;99.90;;;;;;4990500;28;20832;-67
2023/09/18 00:10:50;;;;;;;8.87;3.43;;;19.50;99.90;;;;;;4985338;28;20501;-67
2023/09/18 00:13:17;;;;;;;5.90;2.90;;;19.50;99.90;;;;;;5002431;28;20474;-67
2023/09/18 00:15:47;;;;;;;3.30;2.00;;;19.30;99.90;;;;;;4984700;28;20482;-67
2023/09/18 00:18:15;;;;;;;4.40;2.80;;;19.20;99.90;;;;;;4992520;28;20472;-67
2023/09/18 00:20:42;;;;;;;7.83;4.10;;;19.10;99.90;;;;;;4993118;28;20563;-67
2023/09/18 00:23:09;;;;;;;2.60;2.20;;;19.00;99.90;;;;;;4982352;28;20479;-67
2023/09/18 00:25:36;;;;;;;6.87;2.90;;;19.00;99.90;;;;;;4995599;28;21081;-67
2023/09/18 00:28:05;;;;;;;4.20;2.80;;;19.10;99.90;;;;;;4988885;28;20486;-67
2023/09/18 00:30:32;;;;;;;5.27;3.13;;;19.10;99.90;;;;;;5000159;28;20737;-67
2023/09/18 00:32:58;;;;;;;7.93;3.00;;;19.00;99.90;;;;;;4990652;28;20491;-68
2023/09/18 00:35:25;;;;;;;6.90;3.90;;;18.90;99.90;;;;;;4995405;28;21161;-67
2023/09/18 00:37:52;;;;;;;4.53;3.23;;;18.80;99.90;;;;;;4995306;28;20548;-66
2023/09/18 00:40:20;;;;;;;3.90;2.60;;;18.80;99.90;;;;;;4989969;28;20969;-67
2023/09/18 00:42:46;;;;;;;5.40;2.93;;;18.90;99.90;;;;;;4995443;28;20850;-67
2023/09/18 00:45:14;;;;;;;4.90;3.30;;;18.90;99.90;;;;;;4979290;28;20482;-67
2023/09/18 00:47:41;;;;;;;7.80;3.30;;;19.00;99.90;;;;;;4985055;28;20474;-67
2023/09/18 00:50:10;;;;;;;6.13;3.00;;;19.10;99.90;;;;;;4985113;28;20510;-67
2023/09/18 00:52:38;;;;;;;3.03;2.70;;;19.20;99.90;;;;;;4990640;28;20970;-67
2023/09/18 00:55:08;;;;;;;6.80;3.27;;;19.30;99.90;;;;;;4991132;28;20997;-67
2023/09/18 00:57:35;;;;;;;3.23;2.37;;;19.40;99.90;;;;;;4982027;28;20481;-67
2023/09/18 01:00:07;;;;;;;8.20;3.27;;;19.50;99.90;;;;;;4988044;28;20810;-67
2023/09/18 01:02:35;;;;;;;2.87;2.33;;;19.40;99.90;;;;;;4984164;28;20713;-65
2023/09/18 01:05:03;;;;;;;3.87;3.07;;;19.50;99.90;;;;;;4989290;28;20469;-66
2023/09/18 01:07:29;;;;;;;4.50;2.90;;;19.50;99.90;;;;;;4981939;28;20470;-66
2023/09/18 01:09:56;;;;;;;12.40;4.20;;;19.60;99.90;;;;;;4992502;28;20491;-66
2023/09/18 01:12:31;;;;;;;4.13;3.50;;;19.80;99.90;;;;;;4989912;28;20518;-66
2023/09/18 01:15:03;;;;;;;13.37;3.67;;;20.10;99.90;;;;;;4994242;28;20484;-67
2023/09/18 01:17:31;;;;;;;10.50;2.90;;;20.40;99.90;;;;;;4985235;28;20535;-67
2023/09/18 01:19:59;;;;;;;11.60;4.03;;;20.60;99.90;;;;;;4977916;28;20483;-67
2023/09/18 01:22:26;;;;;;;7.33;3.50;;;20.80;99.90;;;;;;4982066;28;20480;-66
2023/09/18 01:24:54;;;;;;;6.67;4.30;;;21.10;99.90;;;;;;4988984;28;20486;-67
2023/09/18 01:27:21;;;;;;;12.10;5.30;;;21.30;99.90;;;;;;4984156;28;20489;-67
2023/09/18 01:29:48;;;;;;;6.80;4.10;;;21.50;99.90;;;;;;4993018;28;20480;-65
2023/09/18 01:32:16;;;;;;;10.37;3.70;;;21.70;99.90;;;;;;4997843;28;20564;-66
2023/09/18 01:34:47;;;;;;;13.93;4.77;;;21.90;99.90;;;;;;4981877;28;20483;-65
2023/09/18 01:37:17;;;;;;;9.13;3.90;;;22.10;99.50;;;;;;4997426;28;20486;-64
2023/09/18 01:39:46;;;;;;;6.60;4.03;;;22.20;99.20;;;;;;4987820;28;20489;-66
2023/09/18 01:42:14;;;;;;;14.73;4.27;;;22.40;99.10;;;;;;4985309;28;20481;-65
2023/09/18 01:44:42;;;;;;;12.13;4.87;;;22.50;98.90;;;;;;4993327;28;21035;-65
2023/09/18 01:47:10;;;;;;;12.50;4.87;;;22.60;98.50;;;;;;4996683;28;21197;-65
2023/09/18 01:49:39;;;;;;;18.40;4.80;;;22.70;98.40;;;;;;4988991;28;20556;-66
2023/09/18 01:52:07;;;;;;;14.60;3.90;;;22.80;98.20;;;;;;4985721;28;20954;-65
2023/09/18 01:54:35;;;;;;;18.53;4.17;;;22.90;98.40;;;;;;4997758;28;20497;-64
2023/09/18 01:57:02;;;;;;;14.90;7.70;;;22.90;98.80;;;;;;4997487;28;20483;-66
2023/09/18 01:59:30;;;;;;;14.40;3.93;;;23.00;98.40;;;;;;4989033;28;20868;-65
2023/09/18 02:01:57;;;;;;;10.70;3.50;;;22.90;98.40;;;;;;4993505;28;20482;-65
2023/09/18 02:04:25;;;;;;;16.77;4.37;;;22.90;98.60;;;;;;4987017;28;20815;-65
2023/09/18 02:06:52;;;;;;;7.93;3.90;;;22.90;98.40;;;;;;4991310;28;20740;-65
2023/09/18 02:09:19;;;;;;;11.47;4.20;;;23.00;98.50;;;;;;4980674;28;20509;-64
2023/09/18 02:11:48;;;;;;;7.10;3.20;;;22.90;98.60;;;;;;5006991;28;20488;-65
2023/09/18 02:14:15;;;;;;;9.43;3.80;;;23.00;98.60;;;;;;4985946;28;20483;-65
2023/09/18 02:16:44;;;;;;;14.80;4.20;;;23.00;98.60;;;;;;4968656;28;20489;-66
2023/09/18 02:19:15;;;;;;;16.83;5.00;;;22.90;99.00;;;;;;4996254;28;20484;-66
2023/09/18 02:21:42;;;;;;;12.80;4.40;;;22.80;99.00;;;;;;4981542;28;20600;-65
2023/09/18 02:24:09;;;;;;;12.70;2.90;;;22.70;99.10;;;;;;4993077;28;20500;-65
2023/09/18 02:26:36;;;;;;;9.20;4.53;;;22.60;99.00;;;;;;4992602;28;20487;-65
2023/09/18 02:29:04;;;;;;;15.30;5.40;;;22.70;98.90;;;;;;4990947;28;20868;-65
2023/09/18 02:31:31;;;;;;;18.60;4.40;;;22.70;98.60;;;;;;5005401;28;20489;-65
2023/09/18 02:33:59;;;;;;;18.63;5.30;;;22.80;98.50;;;;;;4997869;28;20478;-65
2023/09/18 02:36:26;;;;;;;9.87;3.37;;;22.80;98.40;;;;;;4985363;28;20496;-62
2023/09/18 02:38:53;;;;;;;16.10;4.10;;;22.90;98.50;;;;;;4985082;28;20483;-65
2023/09/18 02:41:19;;;;;;;14.00;4.40;;;22.90;98.60;;;;;;4997153;28;20478;-66
2023/09/18 02:43:46;;;;;;;16.23;5.50;;;22.80;98.60;;;;;;4988837;28;20489;-63
2023/09/18 02:46:13;;;;;;;11.73;3.53;;;22.90;98.80;;;;;;4986747;28;20485;-65
2023/09/18 02:48:39;;;;;;;13.00;5.30;;;22.80;99.10;;;;;;4997158;28;20500;-65
2023/09/18 02:51:08;;;;;;;10.30;4.47;;;22.80;99.30;;;;;;4987104;28;20819;-65
2023/09/18 02:53:35;;;;;;;11.93;4.37;;;22.80;99.40;;;;;;4996859;28;20948;-64
2023/09/18 02:56:02;;;;;;;10.13;4.70;;;22.70;99.60;;;;;;4984924;28;20478;-65
2023/09/18 02:58:30;;;;;;;15.93;4.60;;;22.70;99.60;;;;;;4987802;28;20518;-66
2023/09/18 03:00:58;;;;;;;16.73;5.60;;;22.60;99.70;;;;;;4985804;28;20915;-66
2023/09/18 03:03:25;;;;;;;16.07;5.73;;;22.30;99.70;;;;;;4976985;28;20998;-64
2023/09/18 03:05:51;;;;;;;7.13;2.37;;;22.30;99.60;;;;;;4994947;28;20477;-64
2023/09/18 03:08:20;;;;;;;7.30;3.13;;;22.30;99.30;;;;;;5002162;28;20822;-65
2023/09/18 03:10:46;;;;;;;9.73;3.20;;;22.30;99.20;;;;;;4990361;28;20878;-64
2023/09/18 03:13:16;;;;;;;8.93;2.73;;;22.30;99.20;;;;;;4984170;28;20723;-64
2023/09/18 03:15:46;;;;;;;8.70;4.30;;;22.40;99.30;;;;;;4992975;28;20885;-64
2023/09/18 03:18:14;;;;;;;6.57;3.00;;;22.30;99.30;;;;;;4969961;28;20490;-64
2023/09/18 03:20:41;;;;;;;11.03;3.37;;;22.20;99.60;;;;;;4992446;28;20861;-64
2023/09/18 03:23:08;;;;;;;7.50;4.10;;;22.20;99.70;;;;;;4988743;28;20478;-65
2023/09/18 03:25:37;;;;;;;7.00;2.90;;;22.10;99.90;;;;;;4986619;28;20477;-67
2023/09/18 03:28:04;;;;;;;8.47;3.60;;;22.00;99.90;;;;;;4980941;28;20470;-66
2023/09/18 03:30:31;;;;;;;14.20;2.83;;;22.00;99.90;;;;;;4995420;28;20852;-66
2023/09/18 03:32:58;;;;;;;8.80;3.10;;;22.00;99.90;;;;;;4992724;28;20493;-65
2023/09/18 03:35:24;;;;;;;7.10;3.23;;;22.00;99.90;;;;;;4987356;28;20489;-65
2023/09/18 03:37:54;;;;;;;5.90;2.73;;;21.90;99.90;;;;;;4982986;28;20483;-65
2023/09/18 03:40:21;;;;;;;5.20;2.90;;;21.80;99.90;;;;;;4980111;28;20481;-66
2023/09/18 03:42:50;;;;;;;13.90;3.43;;;21.70;99.90;;;;;;4995408;28;20598;-65
2023/09/18 03:45:18;;;;;;;10.60;2.83;;;21.60;99.90;;;;;;4986008;28;21261;-66
2023/09/18 03:47:45;;;;;;;4.70;3.20;;;21.50;99.90;;;;;;4987418;28;20468;-65
2023/09/18 03:50:13;;;;;;;9.53;3.40;;;21.50;99.90;;;;;;4990398;28;20488;-67
2023/09/18 03:52:40;;;;;;;9.83;2.50;;;21.40;99.90;;;;;;5002383;28;20493;-66
2023/09/18 03:55:07;;;;;;;9.60;3.53;;;21.30;99.90;;;;;;4989253;28;20476;-66
2023/09/18 03:57:36;;;;;;;9.53;3.27;;;21.30;99.90;;;;;;4988513;28;20684;-67
2023/09/18 04:00:07;;;;;;;8.63;3.17;;;21.20;99.90;;;;;;4998365;28;20539;-68
2023/09/18 04:02:34;;;;;;;8.97;3.53;;;21.10;99.90;;;;;;4988720;28;20478;-67
2023/09/18 04:05:01;;;;;;;13.23;3.17;;;21.00;99.90;;;;;;4989660;28;20474;-66
2023/09/18 04:07:28;;;;;;;4.50;2.50;;;21.10;99.90;;;;;;4974921;28;20489;-66
2023/09/18 04:09:55;;;;;;;5.80;2.80;;;21.10;99.90;;;;;;5006170;28;20501;-65
2023/09/18 04:12:22;;;;;;;17.33;3.90;;;21.20;99.90;;;;;;4992439;28;20480;-66
2023/09/18 04:14:49;;;;;;;7.53;3.13;;;21.20;99.90;;;;;;4998189;28;20498;-67
2023/09/18 04:17:17;;;;;;;10.60;2.57;;;21.10;99.90;;;;;;4990139;28;20472;-66
2023/09/18 04:19:45;;;;;;;3.83;2.07;;;21.10;99.90;;;;;;5004228;28;20855;-66
2023/09/18 04:22:13;;;;;;;7.60;2.50;;;21.20;99.90;;;;;;5004952;28;20487;-66
2023/09/18 04:24:42;;;;;;;4.20;2.43;;;21.20;99.90;;;;;;4981171;28;20465;-65
2023/09/18 04:27:09;;;;;;;5.37;2.23;;;21.30;99.90;;;;;;4981462;28;20509;-66
2023/09/18 04:29:36;;;;;;;13.73;3.70;;;21.30;99.90;;;;;;5000726;28;20930;-65
2023/09/18 04:32:05;;;;;;;10.13;2.63;;;21.30;99.90;;;;;;4987983;28;20545;-65
2023/09/18 04:34:34;;;;;;;6.40;2.07;;;21.40;99.90;;;;;;4987729;28;20470;-66
2023/09/18 04:37:03;;;;;;;7.10;2.57;;;21.30;99.90;;;;;;4982761;28;21762;-66
2023/09/18 04:39:31;;;;;;;8.10;2.57;;;21.20;99.90;;;;;;4992665;28;20507;-66
2023/09/18 04:41:58;;;;;;;6.60;2.33;;;21.10;99.90;;;;;;4981847;28;20568;-66
2023/09/18 04:44:24;;;;;;;8.40;3.00;;;21.10;99.90;;;;;;4983578;28;20499;-65
2023/09/18 04:46:52;;;;;;;6.57;2.50;;;21.20;99.90;;;;;;4991726;28;20830;-65
2023/09/18 04:49:19;;;;;;;4.90;2.67;;;21.20;99.90;;;;;;4985818;28;20488;-65
2023/09/18 04:51:47;;;;;;;9.57;2.47;;;21.30;99.90;;;;;;4989311;28;20848;-64
2023/09/18 04:54:15;;;;;;;7.17;2.57;;;21.40;99.90;;;;;;4966994;28;20500;-65
2023/09/18 04:56:42;;;;;;;5.47;2.50;;;21.50;99.90;;;;;;5014529;28;20602;-64
2023/09/18 04:59:08;;;;;;;11.10;3.27;;;21.30;99.90;;;;;;4986509;28;20473;-65
2023/09/18 05:01:35;;;;;;;4.90;2.50;;;21.20;99.90;;;;;;4989631;28;20478;-65
2023/09/18 05:04:02;;;;;;;6.20;2.10;;;21.30;99.90;;;;;;4987520;28;20909;-65
2023/09/18 05:06:28;;;;;;;5.40;2.00;;;21.30;99.90;;;;;;4995063;28;20475;-65
2023/09/18 05:08:57;;;;;;;7.73;2.00;;;21.40;99.90;;;;;;4984550;28;21009;-65
2023/09/18 05:11:24;;;;;;;10.53;2.10;;;21.40;99.90;;;;;;4995132;28;20559;-65
2023/09/18 05:13:50;;;;;;;4.00;1.90;;;21.50;99.90;;;;;;4990097;28;20917;-65
2023/09/18 05:16:18;;;;;;;9.07;2.67;;;21.60;99.90;;;;;;5000142;28;20486;-65
2023/09/18 05:18:45;;;;;;;6.33;3.50;;;21.40;99.90;;;;;;4980197;28;20498;-65
2023/09/18 05:21:12;;;;;;;5.23;2.27;;;21.20;99.90;;;;;;4984832;28;20481;-65
2023/09/18 05:23:38;;;;;;;7.00;1.80;;;21.10;99.90;;;;;;4986390;28;20510;-65
2023/09/18 05:26:06;;;;;;;5.73;2.30;;;21.00;99.90;;;;;;4985719;28;20476;-65
2023/09/18 05:28:33;;;;;;;7.03;2.00;;;21.10;99.90;;;;;;4991500;28;20570;-65
2023/09/18 05:31:00;;;;;;;3.67;2.10;;;21.20;99.90;;;;;;4982216;28;20881;-65
2023/09/18 05:33:27;;;;;;;13.30;2.73;;;21.30;99.90;;;;;;4983817;28;20486;-65
2023/09/18 05:35:53;;;;;;;10.77;2.50;;;21.30;99.90;;;;;;4989444;28;20815;-65
2023/09/18 05:38:20;;;;;;;11.83;2.73;;;21.30;99.90;;;;;;4999825;28;20487;-65
2023/09/18 05:40:47;;;;;;;12.20;2.37;;;21.20;99.90;;;;;;4978666;28;20477;-65
2023/09/18 05:43:15;;;;;;;15.53;2.67;;;21.10;99.90;;;;;;4990145;28;20486;-65
2023/09/18 05:45:42;;;;;;;10.73;2.63;;;20.80;99.90;;;;;;4981555;28;20518;-65
2023/09/18 05:48:09;;;;;;;10.97;2.53;;;20.70;99.90;;;;;;4993994;28;20774;-65
2023/09/18 05:50:36;;;;;;;3.73;2.60;;;20.50;99.90;;;;;;4988468;28;20537;-65
2023/09/18 05:53:04;;;;;;;11.43;2.20;;;20.40;99.90;;;;;;4985025;28;20490;-66
2023/09/18 05:55:31;;;;;;;4.23;2.13;;;20.40;99.90;;;;;;4988825;28;20961;-65
2023/09/18 05:57:58;;;;;;;4.90;2.47;;;20.30;99.90;;;;;;4988640;28;20486;-65
2023/09/18 06:00:27;;;;;;;3.60;2.20;;;20.30;99.90;;;;;;4992124;28;21082;-65
2023/09/18 06:02:53;;;;;;;6.20;2.40;;;20.30;99.90;;;;;;4980177;28;20952;-65
2023/09/18 06:05:21;;;;;;;10.07;2.70;;;20.20;99.90;;;;;;4987938;28;20554;-65
2023/09/18 06:07:49;;;;;;;5.20;1.87;;;20.30;99.90;;;;;;4987522;28;20473;-65
2023/09/18 06:10:17;;;;;;;10.20;2.33;;;20.40;99.90;;;;;;4984750;28;20507;-65
2023/09/18 06:12:44;;;;;;;4.10;1.80;;;20.50;99.90;;;;;;4987805;28;20488;-65
2023/09/18 06:15:12;;;;;;;6.67;2.50;;;20.60;99.90;;;;;;4988481;28;21029;-65
2023/09/18 06:17:42;;;;;;;3.50;1.93;;;20.70;99.90;;;;;;4999454;28;20498;-65
2023/09/18 06:20:10;;;;;;;4.30;2.00;;;20.70;99.90;;;;;;4975769;28;21004;-65
2023/09/18 06:22:38;;;;;;;6.10;2.13;;;20.70;99.90;;;;;;5005478;28;20533;-65
2023/09/18 06:25:06;;;;;;;4.43;2.40;;;20.70;99.90;;;;;;4988134;28;20477;-65
2023/09/18 06:27:36;;;;;;;2.83;1.83;;;20.70;99.90;;;;;;4990074;28;20761;-65
2023/09/18 06:30:03;;;;;;;3.17;1.70;;;20.70;99.90;;;;;;4998399;28;20840;-65
2023/09/18 06:32:30;;;;;;;5.50;1.93;;;20.60;99.90;;;;;;5000380;28;20475;-65
2023/09/18 06:34:58;;;;;;;12.10;2.33;;;20.50;99.90;;;;;;4976417;28;20837;-64
2023/09/18 06:37:25;;;;;;;5.30;2.07;;;20.40;99.90;;;;;;4978128;28;20488;-64
2023/09/18 06:39:52;;;;;;;10.97;2.17;;;20.30;99.90;;;;;;4976726;28;20519;-65
2023/09/18 06:42:19;;;;;;;4.50;2.07;;;20.30;99.90;;;;;;4999243;28;20829;-65
2023/09/18 06:44:45;;;;;;;9.27;2.07;;;20.30;99.90;;;;;;4980868;28;20489;-64
2023/09/18 06:47:14;;;;;;;4.57;2.13;;;20.30;99.90;;;;;;5004035;28;20472;-64
2023/09/18 06:49:41;;;;;;;3.17;1.40;;;20.30;99.90;;;;;;4991270;28;20485;-64
2023/09/18 06:52:09;;;;;;;3.10;1.70;;;20.30;99.90;;;;;;4975571;28;20557;-65
2023/09/18 06:54:36;;;;;;;3.53;1.13;;;20.30;99.90;;;;;;5000160;28;20479;-67
2023/09/18 06:57:04;;;;;;;4.10;2.07;;;20.30;99.90;;;;;;4979952;28;20494;-66
2023/09/18 06:59:32;;;;;;;3.90;1.37;;;20.30;99.90;;;;;;4988572;28;20508;-66
2023/09/18 07:01:58;;;;;;;3.53;1.70;;;20.30;99.90;;;;;;4971238;28;20569;-66
2023/09/18 07:04:25;;;;;;;2.20;1.53;;;20.30;99.90;;;;;;4985219;28;20481;-68
2023/09/18 07:06:53;;;;;;;4.47;1.40;;;20.20;99.90;;;;;;4997512;28;20474;-67
2023/09/18 07:09:22;;;;;;;2.20;1.10;;;20.30;99.90;;;;;;4969416;28;20475;-67
2023/09/18 07:11:50;;;;;;;2.30;1.13;;;20.30;99.90;;;;;;4998078;28;20479;-68
2023/09/18 07:14:17;;;;;;;4.40;1.20;;;20.30;99.90;;;;;;4982996;28;20535;-66
2023/09/18 07:16:44;;;;;;;8.20;1.60;;;20.40;99.90;;;;;;4982221;28;20489;-66
2023/09/18 07:19:16;;;;;;;3.00;1.43;;;20.40;99.90;;;;;;4992154;28;20486;-66
2023/09/18 07:21:43;;;;;;;3.13;1.27;;;20.30;99.90;;;;;;4991941;28;20814;-68
2023/09/18 07:24:16;;;;;;;6.47;1.93;;;20.30;99.90;;;;;;4997591;28;20494;-64
2023/09/18 07:26:44;;;;;;;2.73;1.20;;;20.30;99.90;;;;;;4995316;28;20513;-65
2023/09/18 07:29:11;;;;;;;10.67;1.77;;;20.40;99.90;;;;;;4990819;28;20495;-65
2023/09/18 07:31:38;;;;;;;6.27;1.47;;;20.40;99.90;;;;;;4992606;28;20492;-65
2023/09/18 07:34:05;;;;;;;2.37;1.00;;;20.50;99.90;;;;;;4989070;28;20820;-65
2023/09/18 07:36:32;;;;;;;8.73;1.40;;;20.50;99.90;;;;;;4977666;28;20474;-65
2023/09/18 07:38:58;;;;;;;5.10;2.27;;;20.50;99.90;;;;;;4985958;28;20477;-64
2023/09/18 07:41:26;;;;;;;2.97;1.47;;;20.60;99.90;;;;;;4989239;28;20492;-64
2023/09/18 07:43:54;;;;;;;1.90;0.90;;;20.60;99.90;;;;;;4997755;28;20492;-65
2023/09/18 07:46:20;;;;;;;2.77;1.13;;;20.50;99.90;;;;;;4979773;28;20484;-64
2023/09/18 07:48:47;;;;;;;2.83;1.13;;;20.40;99.90;;;;;;4967865;28;20999;-65
2023/09/18 07:51:16;;;;;;;3.10;1.40;;;20.50;99.90;;;;;;4984310;28;20486;-65
2023/09/18 07:53:44;;;;;;;2.20;1.10;;;20.50;99.90;;;;;;4978332;28;20530;-65
2023/09/18 07:56:10;;;;;;;3.13;1.37;;;20.50;99.90;;;;;;4991010;28;20478;-65
2023/09/18 07:58:39;;;;;;;3.90;2.10;;;20.50;99.90;;;;;;4988830;28;20486;-65
2023/09/18 08:01:08;;;;;;;4.40;1.23;;;20.50;99.90;;;;;;4979807;28;20497;-66
2023/09/18 08:03:35;;;;;;;4.90;1.47;;;20.50;99.90;;;;;;4997087;28;20479;-66
2023/09/18 08:06:04;;;;;;;3.20;1.53;;;20.50;99.90;;;;;;4973588;28;20574;-66
2023/09/18 08:08:33;;;;;;;1.80;1.07;;;20.50;99.90;;;;;;4980406;28;20486;-67
2023/09/18 08:11:08;;;;;;;3.20;1.00;;;20.50;99.90;;;;;;4985570;28;20488;-66
2023/09/18 08:13:35;;;;;;;4.10;1.20;;;20.50;99.90;;;;;;4991255;28;20488;-67
2023/09/18 08:16:02;;;;;;;7.23;1.40;;;20.50;99.90;;;;;;4987455;28;21019;-67
2023/09/18 08:18:30;;;;;;;3.03;1.83;;;20.50;99.90;;;;;;4979410;28;20881;-67
2023/09/18 08:20:58;;;;;;;2.43;1.20;;;20.50;99.90;;;;;;4986610;28;20468;-68
2023/09/18 08:23:25;;;;;;;5.20;1.40;;;20.60;99.90;;;;;;4994811;28;20547;-66
2023/09/18 08:25:55;;;;;;;5.43;1.10;;;20.60;99.90;;;;;;4997188;28;21378;-67
2023/09/18 08:28:22;;;;;;;6.50;1.13;;;20.60;99.90;;;;;;4985073;28;20482;-66
2023/09/18 08:30:48;;;;;;;1.90;1.10;;;20.70;99.90;;;;;;4979923;28;20477;-67
2023/09/18 08:33:15;;;;;;;3.77;0.90;;;20.70;99.90;;;;;;4998050;28;20495;-67
2023/09/18 08:35:44;;;;;;;5.13;1.77;;;20.80;99.90;;;;;;4993240;28;20486;-69
2023/09/18 08:38:10;;;;;;;2.30;1.30;;;20.80;99.90;;;;;;4976751;28;20482;-67
2023/09/18 08:40:37;;;;;;;2.60;0.83;;;21.00;99.90;;;;;;4971535;28;20473;-69
2023/09/18 08:43:05;;;;;;;6.23;1.37;;;21.00;99.90;;;;;;5001447;28;20478;-67
2023/09/18 08:45:36;;;;;;;2.70;1.60;;;21.20;99.90;;;;;;4989690;28;20476;-68
2023/09/18 08:48:04;;;;;;;2.57;1.30;;;21.10;99.90;;;;;;4990877;28;20686;-69
2023/09/18 08:50:31;;;;;;;6.60;1.77;;;21.10;99.90;;;;;;4983045;28;20477;-66
2023/09/18 08:53:00;;;;;;;7.90;2.07;;;21.10;99.90;;;;;;4982428;28;20497;-67
2023/09/18 08:55:27;;;;;;;8.50;1.33;;;21.20;99.90;;;;;;5002086;28;20493;-68
2023/09/18 08:57:54;;;;;;;5.73;1.30;;;21.30;99.90;;;;;;4997677;28;20477;-68
2023/09/18 09:00:21;;;;;;;5.93;1.53;;;21.40;99.90;;;;;;4992154;28;20465;-66
2023/09/18 09:02:51;;;;;;;4.10;1.97;;;21.60;99.90;;;;;;4990892;28;20504;-67
2023/09/18 09:05:18;;;;;;;3.90;1.40;;;21.70;99.90;;;;;;4989166;28;21392;-67
2023/09/18 09:07:45;;;;;;;9.07;1.60;;;21.90;99.90;;;;;;4980727;28;21068;-67
2023/09/18 09:10:13;;;;;;;2.83;1.50;;;22.00;99.90;;;;;;4998641;28;20894;-66
2023/09/18 09:12:50;;;;;;;2.83;1.53;;;22.00;99.90;;;;;;5001721;28;20479;-67
2023/09/18 09:15:17;;;;;;;8.93;1.20;;;21.80;99.90;;;;;;4982145;28;20845;-65
2023/09/18 09:17:45;;;;;;;2.40;1.50;;;22.00;99.90;;;;;;4979022;28;20496;-66
2023/09/18 09:20:13;;;;;;;6.03;1.20;;;21.80;99.90;;;;;;4989461;28;21232;-64
2023/09/18 09:22:41;;;;;;;5.20;1.50;;;21.80;99.90;;;;;;4997612;28;20471;-65
2023/09/18 09:28:08;;;;;;;2.60;1.60;;;21.70;99.90;;;;;;5053012;27;20574;-65
2023/09/18 09:30:37;;;;;;;4.03;1.67;;;21.80;99.90;;;;;;5033984;28;20480;-66
2023/09/18 09:33:05;;;;;;;2.43;1.23;;;21.70;99.90;;;;;;5027738;28;20480;-64
2023/09/18 09:35:33;;;;;;;2.87;1.33;;;21.80;99.90;;;;;;5038867;28;20472;-67
2023/09/18 09:38:07;;;;;;;5.97;1.70;;;21.90;99.90;;;;;;5033932;28;20511;-65
2023/09/18 09:40:36;;;;;;;3.57;1.80;;;21.90;99.90;;;;;;5016293;28;20474;-65
2023/09/18 09:43:04;;;;;;;5.17;2.00;;;21.90;99.90;;;;;;5034285;28;21507;-65
2023/09/18 09:45:35;;;;;;;5.43;1.93;;;22.10;99.90;;;;;;5037782;28;20492;-67
2023/09/18 09:48:05;;;;;;;3.90;1.67;;;22.10;99.90;;;;;;5026475;28;20554;-68
2023/09/18 09:50:32;;;;;;;2.37;1.43;;;22.10;99.90;;;;;;5042377;28;20490;-66
2023/09/18 09:53:00;;;;;;;1.93;1.10;;;22.20;99.90;;;;;;5040861;28;21189;-65
2023/09/18 09:55:28;;;;;;;9.23;1.73;;;22.10;99.90;;;;;;5029017;28;20476;-67
2023/09/18 09:57:59;;;;;;;2.30;1.57;;;22.20;99.90;;;;;;5027558;28;20557;-66
2023/09/18 10:00:31;;;;;;;3.83;1.50;;;22.20;99.90;;;;;;5028325;28;20883;-65
2023/09/18 10:03:02;;;;;;;3.17;1.07;;;22.40;99.90;;;;;;5045686;28;20545;-68
2023/09/18 10:05:32;;;;;;;6.07;1.60;;;22.40;99.90;;;;;;5012672;28;20487;-67
2023/09/18 10:08:00;;;;;;;2.73;1.10;;;22.30;99.90;;;;;;5044381;28;20853;-66
2023/09/18 10:10:33;;;;;;;4.53;1.70;;;22.40;99.90;;;;;;5031921;28;20528;-66
2023/09/18 10:13:07;;;;;;;9.13;2.63;;;22.50;99.90;;;;;;5037182;28;20482;-65
2023/09/18 10:15:38;;;;;;;6.23;1.90;;;22.40;99.90;;;;;;5022029;28;20852;-64
2023/09/18 10:18:10;;;;;;;3.30;1.30;;;22.30;99.90;;;;;;5045394;28;20883;-67
2023/09/18 10:20:43;;;;;;;5.83;1.40;;;22.40;99.90;;;;;;5043171;28;20464;-66
2023/09/18 10:23:23;;;;;;;2.47;1.73;;;22.40;99.90;;;;;;5030151;28;21041;-68
2023/09/18 10:25:51;;;;;;;3.70;1.70;;;22.40;99.90;;;;;;5039619;28;20917;-67
2023/09/18 10:28:19;;;;;;;2.33;1.57;;;22.30;99.90;;;;;;5050802;28;20752;-66
2023/09/18 10:30:46;;;;;;;3.40;1.57;;;22.40;99.90;;;;;;5038108;28;20697;-68
2023/09/18 10:33:14;;;;;;;6.97;1.93;;;22.40;99.90;;;;;;5042748;28;21030;-68
2023/09/18 10:35:43;;;;;;;3.83;1.60;;;22.20;99.90;;;;;;5042998;28;20479;-66
2023/09/18 10:38:11;;;;;;;4.13;1.13;;;22.40;99.90;;;;;;5023824;28;20483;-67
2023/09/18 10:40:39;;;;;;;2.73;1.30;;;22.40;99.90;;;;;;5002352;28;20485;-66
2023/09/18 10:43:10;;;;;;;3.90;1.40;;;22.40;99.90;;;;;;4994307;28;20484;-67
2023/09/18 10:45:37;;;;;;;2.10;1.73;;;22.40;99.90;;;;;;4991348;28;20497;-66
2023/09/18 10:48:07;;;;;;;5.73;2.07;;;22.30;99.90;;;;;;4993714;28;20543;-66
2023/09/18 10:50:36;;;;;;;2.20;1.37;;;22.30;99.90;;;;;;5014990;28;20481;-66
2023/09/18 10:53:04;;;;;;;2.10;1.30;;;22.40;99.90;;;;;;4998606;28;20550;-66
2023/09/18 10:55:33;;;;;;;2.20;1.53;;;22.40;99.90;;;;;;5002544;28;20499;-66
2023/09/18 10:58:01;;;;;;;2.43;1.70;;;22.50;99.90;;;;;;5020010;28;20501;-67
2023/09/18 11:00:30;;;;;;;4.50;1.83;;;22.60;99.90;;;;;;5003155;28;20488;-68
2023/09/18 11:03:12;;;;;;;2.30;1.27;;;22.70;99.90;;;;;;4999326;28;20585;-67
2023/09/18 11:05:40;;;;;;;6.53;1.77;;;22.70;99.90;;;;;;4998995;28;20556;-66
2023/09/18 11:08:26;;;;;;;2.60;1.30;;;22.70;99.90;;;;;;4997542;28;20496;-69
2023/09/18 11:11:04;;;;;;;2.47;1.50;;;22.60;99.90;;;;;;4987586;28;20549;-66
2023/09/18 11:13:31;;;;;;;5.97;1.57;;;22.60;99.90;;;;;;4981200;28;21020;-66
2023/09/18 11:16:03;;;;;;;5.97;2.07;;;22.80;99.90;;;;;;5008387;28;20484;-65
2023/09/18 11:18:33;;;;;;;2.83;1.47;;;22.90;99.90;;;;;;4991725;28;21008;-66
2023/09/18 11:21:18;;;;;;;6.13;2.97;;;23.00;99.90;;;;;;4999333;28;20902;-66
2023/09/18 11:23:45;;;;;;;2.30;1.43;;;23.00;99.90;;;;;;5000422;28;20476;-65
2023/09/18 11:26:12;;;;;;;3.63;1.93;;;23.10;99.90;;;;;;5023159;28;20494;-65
2023/09/18 11:28:39;;;;;;;2.50;1.57;;;23.10;99.80;;;;;;5021119;28;20484;-65
2023/09/18 11:31:07;;;;;;;5.17;1.93;;;23.00;99.90;;;;;;5022795;28;21028;-65
2023/09/18 11:33:35;;;;;;;2.83;2.20;;;23.10;99.90;;;;;;4998504;28;20481;-66
2023/09/18 11:36:07;;;;;;;4.63;1.63;;;23.10;99.90;;;;;;5010591;28;21352;-65
2023/09/18 11:38:51;;;;;;;3.57;1.90;;;23.00;99.80;;;;;;4986469;28;21052;-65
2023/09/18 11:41:26;;;;;;;2.93;1.43;;;23.10;99.90;;;;;;5007105;28;20473;-66
2023/09/18 11:43:52;;;;;;;2.33;1.67;;;23.00;99.20;;;;;;4993270;28;20475;-63
2023/09/18 11:46:20;;;;;;;4.23;2.33;;;22.90;99.40;;;;;;5014682;28;20488;-64
2023/09/18 11:48:50;;;;;;;3.23;1.97;;;22.90;99.40;;;;;;5011152;28;20488;-64
2023/09/18 11:51:24;;;;;;;2.60;1.83;;;22.90;99.60;;;;;;4999357;28;20486;-64
2023/09/18 11:53:55;;;;;;;2.87;1.70;;;22.90;99.10;;;;;;5024617;28;20488;-68
2023/09/18 11:56:22;;;;;;;4.33;1.97;;;22.90;98.70;;;;;;5001624;28;20896;-66
2023/09/18 11:58:54;;;;;;;2.50;1.80;;;22.90;99.20;;;;;;5002083;28;20485;-64
2023/09/18 12:01:22;;;;;;;5.83;2.47;;;23.10;99.20;;;;;;5001481;28;20485;-66
2023/09/18 12:03:54;;;;;;;3.60;2.30;;;23.20;99.80;;;;;;5010508;28;20481;-65
2023/09/18 12:06:22;;;;;;;5.30;1.93;;;23.10;99.10;;;;;;4995382;28;20877;-64
2023/09/18 12:08:54;;;;;;;11.70;2.47;;;23.30;99.70;;;;;;5011946;28;20598;-66
2023/09/18 12:11:22;;;;;;;2.60;1.80;;;23.30;99.20;;;;;;5011068;28;20968;-64
2023/09/18 12:13:52;;;;;;;2.60;1.77;;;23.20;99.40;;;;;;5003618;28;20483;-66
2023/09/18 12:16:19;;;;;;;2.50;2.10;;;23.10;99.00;;;;;;5007056;28;20501;-64
2023/09/18 12:18:49;;;;;;;4.43;1.60;;;23.20;98.60;;;;;;5006928;28;20488;-66
2023/09/18 12:21:18;;;;;;;5.03;1.77;;;23.10;98.70;;;;;;5007902;28;20536;-65
2023/09/18 12:23:46;;;;;;;3.93;1.70;;;23.10;98.80;;;;;;4996287;28;20452;-66
2023/09/18 12:26:17;;;;;;;3.13;1.30;;;23.10;98.70;;;;;;5007262;28;20539;-64
2023/09/18 12:28:45;;;;;;;5.70;2.23;;;23.20;99.30;;;;;;4991699;28;21160;-64
2023/09/18 12:31:12;;;;;;;2.90;1.53;;;23.40;99.40;;;;;;4996813;28;20848;-66
2023/09/18 12:33:43;;;;;;;4.07;2.00;;;23.30;98.10;;;;;;4998957;28;20470;-64
2023/09/18 12:36:14;;;;;;;5.80;1.60;;;23.30;98.30;;;;;;5005475;28;20480;-65
2023/09/18 12:38:41;;;;;;;8.53;1.77;;;23.40;98.50;;;;;;5009745;28;20468;-64
2023/09/18 12:41:09;;;;;;;2.30;1.50;;;23.70;98.40;;;;;;5014144;28;20895;-64
2023/09/18 12:43:41;;;;;;;2.30;1.47;;;23.90;98.50;;;;;;5020822;28;20483;-66
2023/09/18 12:46:09;;;;;;;2.33;1.57;;;24.00;98.20;;;;;;5013090;28;20778;-63
2023/09/18 12:48:38;;;;;;;3.23;1.80;;;24.60;97.90;;;;;;5030455;28;20476;-63
2023/09/18 12:51:05;;;;;;;2.77;2.03;;;24.60;96.80;;;;;;5026460;28;20476;-66
2023/09/18 12:53:32;;;;;;;2.97;1.80;;;24.60;96.40;;;;;;5009250;28;20566;-67